Disclaimer

Please do not use the information listed here in-flight or in-navigation, as they are not provided to us by the airports but are provided by volunteers, so they might be outdated.

Search


Regions


Airport information page

Radio informations:
Ground (GND) - 121.7 MHz
Common traffic adv. frequency (CTAF) - 135.875 MHz
Automatic Terminal Information Service (ATIS) - 120.4 MHz
SAN JUAN CNTR - 119.4 MHz

Airport informations:
Latitude: 18° 27' 24.58" N
Longitude: 066° 05' 53.30" W
Elevation: 10 feet - 3 meters
Operating hours: Remarks
Operating agency: Military-civil joint use airport
Timezone: UTC-4
Fuel: Jet A+, Kerosene fuel, Type A, Jet A or JP-1 With icing inhibitor.

Jet A, without icing inhibitor.

100/130 octane gasoline, leaded, MIL-L-5572F (GREEN)

Runway information:
09/27 - 5317 x 100 feet< - >1621 x 30 meters

Recent METARs:
TJIG 191545Z 10011KT 10SM SCT045 29/21 A3004
TJIG 191650Z 11010KT 10SM SCT045 29/21 A3001
TJIG 191650Z 11010KT 10SM SCT045 29/21 A3001

Airport on the map: